TimeEST,TemperatureF,Dew PointF,Humidity,Sea Level PressureIn,VisibilityMPH,Wind Direction,Wind SpeedMPH,Gust SpeedMPH,PrecipitationIn,Events,Conditions,WindDirDegrees,DateUTC
12:15 AM,37.4,35.6,93,30.26,10.0,ESE,3.5,-,N/A,,Overcast,120,2013-02-23 05:15:00
12:35 AM,37.4,37.4,100,30.25,10.0,ESE,5.8,-,N/A,,Overcast,110,2013-02-23 05:35:00
12:55 AM,37.4,35.6,93,30.26,10.0,East,4.6,-,N/A,,Overcast,100,2013-02-23 05:55:00
1:15 AM,37.4,35.6,93,30.25,10.0,East,5.8,-,N/A,,Overcast,90,2013-02-23 06:15:00
1:35 AM,37.4,35.6,93,30.24,10.0,East,3.5,-,N/A,,Overcast,90,2013-02-23 06:35:00
1:55 AM,37.4,37.4,100,30.23,10.0,ENE,3.5,-,N/A,,Overcast,70,2013-02-23 06:55:00
2:15 AM,37.4,37.4,100,30.22,10.0,East,4.6,-,N/A,,Overcast,100,2013-02-23 07:15:00
2:35 AM,39.2,37.4,93,30.21,5.0,ESE,6.9,-,N/A,,Overcast,110,2013-02-23 07:35:00
2:55 AM,39.2,37.4,93,30.20,3.0,ESE,9.2,-,N/A,,Overcast,110,2013-02-23 07:55:00
3:15 AM,39.2,37.4,93,30.19,4.0,ESE,5.8,-,N/A,,Overcast,120,2013-02-23 08:15:00
3:35 AM,39.2,37.4,93,30.19,4.0,ESE,9.2,-,N/A,,Overcast,110,2013-02-23 08:35:00
3:55 AM,39.2,37.4,93,30.17,3.0,East,8.1,-,N/A,,Overcast,100,2013-02-23 08:55:00
4:15 AM,39.2,37.4,93,30.17,3.0,East,8.1,-,N/A,,Overcast,100,2013-02-23 09:15:00
4:35 AM,39.2,39.2,100,30.17,3.0,East,8.1,-,N/A,,Overcast,100,2013-02-23 09:35:00
4:55 AM,39.2,37.4,93,30.16,3.0,ESE,6.9,-,N/A,,Overcast,110,2013-02-23 09:55:00
5:15 AM,39.2,39.2,100,30.15,4.0,ESE,6.9,-,N/A,,Overcast,120,2013-02-23 10:15:00
5:35 AM,39.2,39.2,100,30.15,4.0,ESE,8.1,-,N/A,,Overcast,120,2013-02-23 10:35:00
5:55 AM,39.2,37.4,93,30.14,4.0,ESE,8.1,-,N/A,,Overcast,110,2013-02-23 10:55:00
6:15 AM,41.0,39.2,93,30.14,6.0,ESE,6.9,-,N/A,,Overcast,110,2013-02-23 11:15:00
6:35 AM,41.0,39.2,93,30.14,10.0,East,6.9,-,N/A,,Overcast,100,2013-02-23 11:35:00
6:55 AM,41.0,39.2,93,30.14,7.0,ESE,8.1,-,N/A,,Overcast,110,2013-02-23 11:55:00
7:15 AM,41.0,39.2,93,30.14,4.0,East,6.9,-,N/A,,Overcast,100,2013-02-23 12:15:00
7:35 AM,41.0,41.0,100,30.13,4.0,ESE,9.2,-,N/A,,Overcast,110,2013-02-23 12:35:00
7:55 AM,42.8,41.0,93,30.12,7.0,ESE,8.1,-,N/A,,Overcast,110,2013-02-23 12:55:00
8:15 AM,42.8,41.0,93,30.12,8.0,East,9.2,-,N/A,,Overcast,100,2013-02-23 13:15:00
8:35 AM,42.8,41.0,93,30.11,5.0,East,6.9,-,N/A,,Overcast,90,2013-02-23 13:35:00
8:55 AM,42.8,42.8,100,30.11,5.0,ESE,6.9,-,N/A,,Overcast,120,2013-02-23 13:55:00
9:15 AM,42.8,42.8,100,30.09,5.0,East,6.9,-,N/A,,Overcast,100,2013-02-23 14:15:00
9:35 AM,42.8,42.8,100,30.08,5.0,East,6.9,-,N/A,,Overcast,100,2013-02-23 14:35:00
9:55 AM,42.8,42.8,100,30.07,2.5,East,6.9,-,N/A,,Overcast,100,2013-02-23 14:55:00
10:15 AM,42.8,41.0,93,30.06,1.5,East,6.9,-,N/A,,Overcast,100,2013-02-23 15:15:00
10:35 AM,42.8,41.0,93,30.06,1.8,East,4.6,-,N/A,,Overcast,80,2013-02-23 15:35:00
10:55 AM,42.8,41.0,93,30.05,2.0,ESE,8.1,-,0.01,,Overcast,110,2013-02-23 15:55:00
11:15 AM,44.6,42.8,93,30.05,1.8,East,5.8,-,N/A,,Overcast,90,2013-02-23 16:15:00
11:35 AM,44.6,42.8,93,30.02,3.0,East,6.9,-,0.01,,Overcast,90,2013-02-23 16:35:00
11:55 AM,44.6,44.6,100,30.02,1.8,East,6.9,-,0.02,,Overcast,90,2013-02-23 16:55:00
12:15 PM,44.6,42.8,93,30.01,2.0,East,8.1,-,N/A,,Overcast,80,2013-02-23 17:15:00
12:35 PM,44.6,42.8,93,30.00,2.5,East,8.1,-,0.01,,Overcast,80,2013-02-23 17:35:00
12:55 PM,44.6,44.6,100,29.99,3.0,East,10.4,-,0.02,,Overcast,80,2013-02-23 17:55:00
1:15 PM,44.6,44.6,100,29.97,3.0,East,9.2,-,0.01,,Overcast,90,2013-02-23 18:15:00
1:35 PM,44.6,44.6,100,29.95,2.5,East,9.2,-,0.01,,Overcast,90,2013-02-23 18:35:00
1:55 PM,44.6,42.8,93,29.94,1.8,East,10.4,-,0.02,,Overcast,80,2013-02-23 18:55:00
2:15 PM,44.6,44.6,100,29.93,3.0,East,9.2,-,N/A,,Overcast,80,2013-02-23 19:15:00
2:35 PM,44.6,44.6,100,29.92,3.0,ENE,9.2,-,0.01,,Overcast,70,2013-02-23 19:35:00
2:55 PM,44.6,44.6,100,29.92,3.0,ENE,10.4,-,0.03,,Overcast,70,2013-02-23 19:55:00
3:15 PM,44.6,44.6,100,29.93,3.0,ENE,11.5,-,0.03,,Overcast,60,2013-02-23 20:15:00
3:35 PM,44.6,42.8,93,29.92,5.0,ENE,12.7,-,0.05,,Overcast,70,2013-02-23 20:35:00
3:55 PM,42.8,42.8,100,29.90,7.0,ENE,16.1,21.9,0.06,,Overcast,60,2013-02-23 20:55:00
4:15 PM,42.8,42.8,100,29.90,3.0,ENE,17.3,25.3,0.02,,Overcast,60,2013-02-23 21:15:00
4:35 PM,42.8,41.0,93,29.90,2.0,NE,15.0,20.7,0.05,,Overcast,50,2013-02-23 21:35:00
4:55 PM,42.8,41.0,93,29.91,1.8,NE,9.2,24.2,0.10,,Overcast,40,2013-02-23 21:55:00
5:15 PM,41.0,39.2,93,29.89,1.8,ENE,18.4,24.2,0.03,,Overcast,60,2013-02-23 22:15:00
5:35 PM,39.2,39.2,100,29.89,2.0,NE,16.1,23.0,0.04,,Overcast,50,2013-02-23 22:35:00
5:55 PM,39.2,39.2,100,29.88,2.0,NE,18.4,23.0,0.05,,Overcast,50,2013-02-23 22:55:00
6:15 PM,39.2,37.4,93,29.88,2.5,NE,17.3,25.3,N/A,,Overcast,50,2013-02-23 23:15:00
6:35 PM,39.2,37.4,93,29.89,2.5,NE,16.1,23.0,N/A,,Overcast,40,2013-02-23 23:35:00
6:55 PM,39.2,37.4,93,29.89,3.0,NE,15.0,20.7,0.01,,Overcast,40,2013-02-23 23:55:00
7:15 PM,39.2,37.4,93,29.88,2.5,NE,15.0,21.9,0.01,,Overcast,40,2013-02-24 00:15:00
7:55 PM,39.2,37.4,93,29.87,5.0,NE,16.1,23.0,0.02,,Overcast,50,2013-02-24 00:55:00
8:15 PM,39.2,37.4,93,29.85,4.0,NE,15.0,23.0,N/A,,Overcast,50,2013-02-24 01:15:00
8:35 PM,39.2,37.4,93,29.84,4.0,ENE,15.0,25.3,N/A,,Overcast,60,2013-02-24 01:35:00
8:55 PM,39.2,37.4,93,29.83,5.0,NE,12.7,21.9,N/A,,Overcast,40,2013-02-24 01:55:00
9:15 PM,39.2,37.4,93,29.83,5.0,NE,13.8,18.4,N/A,,Overcast,50,2013-02-24 02:15:00
9:35 PM,39.2,37.4,93,29.82,3.0,NNE,12.7,19.6,N/A,,Overcast,30,2013-02-24 02:35:00
9:55 PM,37.4,37.4,100,29.81,3.0,NNE,10.4,18.4,N/A,,Overcast,30,2013-02-24 02:55:00
10:15 PM,37.4,37.4,100,29.81,3.0,NNE,10.4,17.3,N/A,,Overcast,20,2013-02-24 03:15:00
10:35 PM,37.4,37.4,100,29.81,3.0,NNE,10.4,-,N/A,,Overcast,20,2013-02-24 03:35:00
10:55 PM,37.4,37.4,100,29.79,3.0,NNE,9.2,16.1,N/A,,Overcast,20,2013-02-24 03:55:00
11:15 PM,37.4,37.4,100,29.79,3.0,NNE,10.4,-,N/A,,Overcast,20,2013-02-24 04:15:00
11:35 PM,37.4,37.4,100,29.78,3.0,North,11.5,-,N/A,,Overcast,10,2013-02-24 04:35:00
11:55 PM,37.4,35.6,93,29.78,3.0,North,11.5,-,N/A,,Overcast,360,2013-02-24 04:55:00